• Join FlightAware (Why Join?)
  • Login
  • US Flag 
02:13AM EDT


 

Airport Tracker/Info


-or-


 

Live Flight TrackerFlight Track Log ✈ N618F ✈ 21-Sep-2013 ✈ KSAN - KSJC

Flight Track Log - Related Links

Times and Time Zones

All times are in EDT time to prevent confusion due to time zone crossing. See the N618F flight status page for this flight to view local times or setup timezone preferences in your user account.

Time Position Orientation Groundspeed Altitude Reporting Facility
EDT Latitude Longitude Course Direction KTS MPH feet Rate Location/Type
12:34AM 32.7667 -117.2167 341° North 75 86 1,700  Level Southern California TRACON
12:35AM 32.7833 -117.2167 360° North 78 90 2,300 600 Climbing Southern California TRACON
12:36AM 32.8000 -117.2333 320° Northwest 79 91 3,000 660 Climbing Southern California TRACON
12:37AM 32.8167 -117.2333 360° North 78 90 3,700 600 Climbing Southern California TRACON
12:38AM 32.8500 -117.2500 337° Northwest 79 91 4,300 600 Climbing Southern California TRACON
12:39AM 32.8667 -117.2500 360° North 79 91 5,000 600 Climbing Southern California TRACON
12:40AM 32.8999 -117.3481 341° North  Level Estimated
12:40AM 32.8833 -117.2667 320° Northwest 82 94 5,600  Level Southern California TRACON
12:41AM 32.9000 -117.2667 360° North 85 98 6,100 480 Climbing Southern California TRACON
12:42AM 32.9333 -117.2833 337° Northwest 91 105 6,600 540 Climbing Southern California TRACON
12:43AM 32.9500 -117.3000 320° Northwest 91 105 7,200 480 Climbing Southern California TRACON
12:44AM 32.9833 -117.3000 360° North 91 105 7,700 360 Climbing Southern California TRACON
12:45AM 33.0000 -117.3167 320° Northwest 116 133 8,000 120 Climbing Southern California TRACON
12:46AM 33.0333 -117.3333 337° Northwest 134 154 8,000  Level Southern California TRACON
12:47AM 33.0667 -117.3500 337° Northwest 134 154 8,000  Level Southern California TRACON
12:48AM 33.1000 -117.3667 337° Northwest 134 154 8,000  Level Southern California TRACON
12:49AM 33.1500 -117.3833 344° North 138 159 8,000  Level Southern California TRACON
12:50AM 33.1833 -117.3833 360° North 136 157 8,000  Level Southern California TRACON
12:51AM 33.2167 -117.4000 337° Northwest 134 154 8,000  Level Southern California TRACON
12:52AM 33.2500 -117.4333 320° Northwest 134 154 8,000  Level Southern California TRACON
12:53AM 33.2667 -117.4500 320° Northwest 125 144 8,000 360 Level Southern California TRACON
12:54AM 33.2833 -117.4833 301° West 91 105 8,700 600 Climbing Southern California TRACON
12:55AM 33.3000 -117.5000 320° Northwest 93 107 9,200 480 Climbing Southern California TRACON
12:56AM 33.3333 -117.5167 337° Northwest 95 109 9,700 420 Climbing Southern California TRACON
12:57AM 33.3500 -117.5333 320° Northwest 99 114 10,000 120 Climbing Southern California TRACON
12:59AM 33.3667 -117.5667 301° West 128 147 10,000  Level Southern California TRACON
12:59AM 33.3900 -117.5892 321° Northwest 120 138 10,000  Level Los Angeles Center
01:00AM 33.4150 -117.6186 315° West 126 145 10,000  Level Los Angeles Center
01:01AM 33.4406 -117.6489 315° West 128 147 10,000  Level Los Angeles Center
01:02AM 33.4667 -117.6833 312° West 122 140 10,000  Level Southern California TRACON
01:03AM 33.5000 -117.7167 320° Northwest 122 140 10,000  Level Southern California TRACON
01:04AM 33.5167 -117.7500 301° West 123 142 10,000  Level Southern California TRACON
01:05AM 33.5500 -117.7667 337° Northwest 123 142 10,000  Level Southern California TRACON
01:07AM 33.5667 -117.8000 301° West 122 140 10,000  Level Southern California TRACON
01:08AM 33.6000 -117.8333 320° Northwest 117 135 10,000  Level Southern California TRACON
01:09AM 33.6167 -117.8667 301° West 116 133 10,000  Level Southern California TRACON
01:09AM 33.6333 -117.8833 320° Northwest 119 137 10,000  Level Southern California TRACON
01:11AM 33.6667 -117.9167 320° Northwest 119 137 10,000  Level Southern California TRACON
01:12AM 33.6833 -117.9500 301° West 120 138 10,000  Level Southern California TRACON
01:13AM 33.7167 -117.9667 337° Northwest 116 133 10,000  Level Southern California TRACON
01:14AM 33.7333 -118.0000 301° West 119 137 10,000  Level Southern California TRACON
01:15AM 33.7667 -118.0333 320° Northwest 141 162 10,000  Level Southern California TRACON
01:16AM 33.7833 -118.0500 320° Northwest 121 139 10,000  Level Southern California TRACON
01:17AM 33.8167 -118.0667 337° Northwest 137 158 10,000  Level Southern California TRACON
01:18AM 33.8500 -118.1000 320° Northwest 129 148 10,000  Level Southern California TRACON
01:19AM 33.8833 -118.1167 337° Northwest 133 153 10,000  Level Southern California TRACON
01:20AM 33.9164 -118.1319 339° North 134 154 10,000  Level Los Angeles Center
01:21AM 33.9506 -118.1519 334° Northwest 135 155 10,000  Level Los Angeles Center
01:22AM 33.9856 -118.1714 335° Northwest 138 159 10,000  Level Los Angeles Center
01:23AM 34.0200 -118.1911 335° Northwest 138 159 10,000  Level Los Angeles Center
01:24AM 34.0533 -118.2106 334° Northwest 136 157 10,000  Level Los Angeles Center
01:25AM 34.0856 -118.2300 333° Northwest 130 150 10,000  Level Los Angeles Center
01:26AM 34.1197 -118.2489 335° Northwest 133 153 10,000  Level Los Angeles Center
01:27AM 34.1542 -118.2686 335° Northwest 136 157 10,000  Level Los Angeles Center
01:28AM 34.1856 -118.2894 331° Northwest 131 151 10,000  Level Los Angeles Center
01:29AM 34.2203 -118.3086 335° Northwest 136 157 10,000  Level Los Angeles Center
01:30AM 34.2542 -118.3283 334° Northwest 135 155 10,000  Level Los Angeles Center
01:31AM 34.3003 -118.3550 334° Northwest 134 154 10,000  Level Los Angeles Center
01:32AM 34.3328 -118.3747 333° Northwest 133 153 10,000  Level Los Angeles Center
01:33AM 34.3669 -118.3942 335° Northwest 135 155 10,000  Level Los Angeles Center
01:34AM 34.4006 -118.4131 335° Northwest 133 153 10,000  Level Los Angeles Center
01:35AM 34.4331 -118.4325 334° Northwest 131 151 10,000  Level Los Angeles Center
01:36AM 34.4672 -118.4533 333° Northwest 136 157 10,000  Level Los Angeles Center
01:37AM 34.5022 -118.4722 336° Northwest 137 158 10,000  Level Los Angeles Center
01:38AM 34.5364 -118.4914 335° Northwest 135 155 10,000  Level Los Angeles Center
01:39AM 34.5692 -118.5108 334° Northwest 132 152 10,000  Level Los Angeles Center
01:40AM 34.6028 -118.5317 333° Northwest 135 155 10,000  Level Los Angeles Center
01:41AM 34.6361 -118.5489 337° Northwest 131 151 10,000  Level Los Angeles Center
01:42AM 34.6689 -118.5700 332° Northwest 133 153 10,000  Level Los Angeles Center
01:43AM 34.6958 -118.5972 320° Northwest 129 148 10,000  Level Los Angeles Center
01:44AM 34.7175 -118.6256 313° West 115 132 10,000  Level Los Angeles Center
01:45AM 34.7394 -118.6586 309° West 128 147 10,000  Level Los Angeles Center
01:46AM 34.7544 -118.6811 309° West 111 128 10,000  Level Los Angeles Center
01:47AM 34.7794 -118.7150 312° West 114 131 10,000  Level Los Angeles Center
01:48AM 34.8011 -118.7472 309° West 120 138 10,000 -60 Level Los Angeles Center
01:49AM 34.8236 -118.7775 312° West 120 138 9,900  Descending Los Angeles Center
01:50AM 34.8433 -118.8044 312° West 104 120 10,000  Climbing Los Angeles Center
01:51AM 34.8600 -118.8328 306° West 101 116 9,900  Descending Los Angeles Center
01:52AM 34.8847 -118.8664 312° West 110 127 10,000 240 Climbing Los Angeles Center
01:53AM 34.8989 -118.8886 308° West 93 107 10,400 360 Climbing Los Angeles Center
01:54AM 34.9108 -118.9094 305° West 79 91 10,800 420 Climbing Los Angeles Center
01:55AM 34.9253 -118.9283 313° West 75 86 11,300 420 Climbing Los Angeles Center
01:56AM 34.9389 -118.9453 314° West 72 83 11,700 240 Climbing Los Angeles Center
01:57AM 34.9511 -118.9644 308° West 72 83 11,900 60 Climbing Los Angeles Center
01:58AM 34.9711 -118.9906 313° West 101 116 11,900  Level Los Angeles Center
01:59AM 34.9906 -119.0183 311° West 108 124 11,900  Level Los Angeles Center
02:00AM 35.0089 -119.0478 307° West 108 124 11,900  Level Los Angeles Center
02:01AM 35.0300 -119.0753 313° West 109 125 11,900  Level Los Angeles Center
02:02AM 35.0492 -119.1044 309° West 110 127 12,000  Climbing Los Angeles Center
02:03AM 35.0697 -119.1325 312° West 112 129 12,000  Level Los Angeles Center
02:04AM 35.0900 -119.1631 309° West 114 131 12,000  Level Los Angeles Center
02:05AM 35.1108 -119.1914 312° West 114 131 12,000  Level Los Angeles Center
02:06AM 35.1306 -119.2211 309° West 114 131 12,000  Level Los Angeles Center
02:07AM 35.1492 -119.2522 306° West 114 131 12,000  Level Los Angeles Center
02:08AM 35.1697 -119.2806 312° West 112 129 12,000  Level Los Angeles Center
02:09AM 35.1894 -119.3089 310° West 111 128 12,000  Level Los Angeles Center
02:10AM 35.2111 -119.3375 313° West 114 131 12,000  Level Los Angeles Center
02:11AM 35.2319 -119.3664 311° West 113 130 12,000  Level Los Angeles Center
02:12AM 35.2531 -119.3961 311° West 115 132 12,000  Level Los Angeles Center
02:13AM 35.2775 -119.4314 310° West 114 131 12,000  Level Los Angeles Center
02:14AM 35.2975 -119.4611 310° West 114 131 12,000  Level Los Angeles Center
02:15AM 35.3172 -119.4914 309° West 114 131 12,000  Level Los Angeles Center
02:16AM 35.3381 -119.5206 311° West 114 131 12,000  Level Los Angeles Center
02:17AM 35.3578 -119.5492 310° West 112 129 12,000  Level Los Angeles Center
02:18AM 35.3775 -119.5786 309° West 112 129 12,000  Level Los Angeles Center
02:19AM 35.3964 -119.6078 308° West 111 128 12,000  Level Los Angeles Center
02:20AM 35.4158 -119.6369 309° West 111 128 12,000  Level Los Angeles Center
02:21AM 35.4361 -119.6661 310° West 111 128 12,000  Level Los Angeles Center
02:22AM 35.4564 -119.6956 310° West 112 129 12,000  Level Los Angeles Center
02:23AM 35.4764 -119.7261 309° West 114 131 12,000  Level Los Angeles Center
02:24AM 35.4972 -119.7561 310° West 115 132 12,000  Level Los Angeles Center
02:25AM 35.5181 -119.7858 311° West 115 132 12,000  Level Los Angeles Center
02:26AM 35.5378 -119.8164 308° West 115 132 12,000  Level Los Angeles Center
02:27AM 35.5578 -119.8453 310° West 113 130 12,000  Level Los Angeles Center
02:28AM 35.5786 -119.8756 310° West 114 131 12,000  Level Los Angeles Center
02:29AM 35.5992 -119.9053 310° West 115 132 12,000  Level Los Angeles Center
02:30AM 35.6192 -119.9350 310° West 114 131 12,000  Level Los Angeles Center
02:31AM 35.6392 -119.9669 308° West 116 133 12,000  Level Los Angeles Center
02:32AM 35.6606 -119.9947 313° West 115 132 12,000  Level Los Angeles Center
02:33AM 35.6872 -120.0244 318° Northwest 111 128 12,000  Level Los Angeles Center
02:34AM 35.7089 -120.0489 318° Northwest 108 124 12,000  Level Los Angeles Center
02:35AM 35.7322 -120.0739 319° Northwest 109 125 12,000  Level Los Angeles Center
02:36AM 35.7556 -120.1000 318° Northwest 111 128 12,000  Level Los Angeles Center
02:37AM 35.7808 -120.1267 319° Northwest 117 135 12,000  Level Los Angeles Center
02:39AM 35.8092 -120.1583 318° Northwest 116 133 12,000  Level Oakland Center
02:40AM 35.8339 -120.1856 318° Northwest 118 136 12,000  Level Oakland Center
02:41AM 35.8578 -120.2128 317° Northwest 118 136 12,000  Level Oakland Center
02:42AM 35.8808 -120.2386 318° Northwest 114 131 12,000  Level Oakland Center
02:43AM 35.9036 -120.2647 317° Northwest 113 130 12,000  Level Oakland Center
02:44AM 35.9269 -120.2908 318° Northwest 113 130 12,000  Level Oakland Center
02:45AM 35.9531 -120.3194 318° Northwest 122 140 12,000  Level Oakland Center
02:46AM 35.9761 -120.3461 317° Northwest 117 135 12,000  Level Oakland Center
02:47AM 36.0011 -120.3731 319° Northwest 118 136 12,000  Level Oakland Center
02:48AM 36.0247 -120.3981 319° Northwest 114 131 12,000  Level Oakland Center
02:49AM 36.0475 -120.4239 317° Northwest 112 129 12,000  Level Oakland Center
02:50AM 36.0711 -120.4511 317° Northwest 114 131 12,000  Level Oakland Center
02:51AM 36.0958 -120.4778 319° Northwest 119 137 12,000  Level Oakland Center
02:52AM 36.1197 -120.5069 315° West 121 139 12,000  Level Oakland Center
02:53AM 36.1447 -120.5347 318° Northwest 121 139 12,000  Level Oakland Center
02:54AM 36.1700 -120.5633 318° Northwest 122 140 12,000  Level Oakland Center
02:55AM 36.1939 -120.5914 317° Northwest 120 138 12,000  Level Oakland Center
02:56AM 36.2178 -120.6181 318° Northwest 117 135 12,000  Level Oakland Center
02:57AM 36.2417 -120.6461 317° Northwest 117 135 12,000  Level Oakland Center
02:58AM 36.2667 -120.6739 318° Northwest 120 138 12,000  Level Oakland Center
02:59AM 36.2903 -120.6986 320° Northwest 114 131 12,000  Level Oakland Center
03:00AM 36.3125 -120.7239 317° Northwest 109 125 12,000  Level Oakland Center
03:01AM 36.3353 -120.7494 318° Northwest 110 127 12,000 -180 Level Oakland Center
03:02AM 36.3589 -120.7761 318° Northwest 115 132 11,700 -420 Descending Oakland Center
03:03AM 36.3861 -120.8064 318° Northwest 131 151 11,200 -540 Descending Oakland Center
03:04AM 36.4114 -120.8411 312° West 134 154 10,700 -540 Descending Oakland Center
03:05AM 36.4389 -120.8706 319° Northwest 132 152 10,200 -360 Descending Oakland Center
03:06AM 36.4656 -120.9017 317° Northwest 131 151 10,000 -120 Descending Oakland Center
03:07AM 36.4878 -120.9286 316° Northwest 117 135 10,000  Level Oakland Center
03:08AM 36.5144 -120.9578 319° Northwest 123 142 10,000  Level Oakland Center
03:09AM 36.5411 -120.9844 321° Northwest 124 143 10,000  Level Oakland Center
03:10AM 36.5647 -121.0133 316° Northwest 120 138 10,000  Level Oakland Center
03:11AM 36.5872 -121.0425 314° West 118 136 10,000  Level Oakland Center
03:12AM 36.6125 -121.0697 319° Northwest 119 137 10,000 -120 Level Oakland Center
03:13AM 36.6367 -121.0972 318° Northwest 118 136 9,800 -360 Descending Oakland Center
03:14AM 36.6656 -121.1281 319° Northwest 131 151 9,300 -540 Descending Oakland Center
03:15AM 36.6922 -121.1617 315° West 135 155 8,800 -540 Descending Oakland Center
03:16AM 36.7186 -121.1928 317° Northwest 132 152 8,300 -420 Descending Oakland Center
03:17AM 36.7453 -121.2231 318° Northwest 130 150 8,000 -300 Descending Oakland Center
03:18AM 36.7697 -121.2517 317° Northwest 123 142 7,700 -420 Descending Oakland Center
03:19AM 36.7972 -121.2814 319° Northwest 129 148 7,200 -600 Descending Oakland Center
03:20AM 36.8292 -121.3186 317° Northwest 131 151 6,600 -600 Descending Oakland Center
03:21AM 36.8558 -121.3481 319° Northwest 129 148 6,100 -300 Descending Oakland Center
03:22AM 36.8767 -121.3739 315° West 127 146 6,000 -60 Descending Oakland Center
03:23AM 36.8992 -121.4036 313° West 120 138 6,000  Level Oakland Center
03:24AM 36.9225 -121.4317 316° Northwest 117 135 6,000  Level Oakland Center
03:25AM 36.9481 -121.4572 321° Northwest 118 136 6,000  Level Oakland Center
03:26AM 36.9719 -121.4856 317° Northwest 117 135 6,000  Level Oakland Center
03:27AM 36.9950 -121.5139 316° Northwest 116 133 6,000  Level Oakland Center
03:28AM 37.0181 -121.5417 316° Northwest 115 132 6,000 -60 Level Oakland Center
03:29AM 37.0411 -121.5681 318° Northwest 114 131 5,900 -300 Descending Oakland Center
03:30AM 37.0606 -121.6039 304° West 119 137 5,500 -420 Descending Oakland Center
03:31AM 37.0878 -121.6342 318° Northwest 128 147 5,100 -420 Descending Oakland Center
03:32AM 37.1150 -121.6628 320° Northwest 129 148 4,700 -480 Descending Oakland Center
03:33AM 37.1333 -121.6833 318° Northwest 120 138 4,300 -420 Descending Northern Cal TRACON
03:34AM 37.1667 -121.7167 321° Northwest 117 135 4,000 -180 Descending Northern Cal TRACON
03:35AM 37.1833 -121.7333 321° Northwest 108 124 4,000 -240 Level Northern Cal TRACON
03:36AM 37.2167 -121.7667 321° Northwest 122 140 3,500 -360 Descending Northern Cal TRACON
03:37AM 37.2333 -121.8000 302° West 118 136 3,300 -120 Descending Northern Cal TRACON
03:38AM 37.2500 -121.8000 360° North 116 133 3,300 -780 Level Northern Cal TRACON
03:39AM 37.2900 -121.8525 314° West 116 133 1,800 -1,020 Descending Oakland Center
03:40AM 37.3136 -121.8797 317° Northwest 117 135 1,200 -600 Descending Oakland Center
03:41AM 37.3336 -121.9008 320° Northwest 106 122 600 -480 Descending Oakland Center
03:42AM 37.3467 -121.9147 320° Northwest 78 90 300 -300 Descending Oakland Center